Time;durP1;ratioP1;P1;durP2;ratioP2;P2;SDS_P1;SDS_P2;PMS_P1;PMS_P2;Temp;Humidity;BMP_temperature;BMP_pressure;BME280_temperature;BME280_humidity;BME280_pressure;Samples;Min_cycle;Max_cycle;Signal;HPM_P1;HPM_P2
2021/04/18 00:02:14;;;;;;;14.50;6.00;;;5.40;99.90;;;;;;4340928;33;20288;-61
2021/04/18 00:04:49;;;;;;;15.20;5.67;;;5.30;99.90;;;;;;4336064;33;20224;-64
2021/04/18 00:07:21;;;;;;;15.20;6.10;;;5.30;99.90;;;;;;4336788;33;20294;-59
2021/04/18 00:09:47;;;;;;;14.63;6.47;;;5.30;99.90;;;;;;4306191;33;20157;-60
2021/04/18 00:12:14;;;;;;;14.43;6.97;;;5.20;99.90;;;;;;4308182;33;20735;-61
2021/04/18 00:14:41;;;;;;;20.13;7.17;;;5.20;99.90;;;;;;4309032;33;20230;-61
2021/04/18 00:17:08;;;;;;;14.43;6.47;;;5.20;99.90;;;;;;4312288;33;20173;-62
2021/04/18 00:19:35;;;;;;;14.43;7.07;;;5.20;99.90;;;;;;4309979;33;20545;-63
2021/04/18 00:22:01;;;;;;;18.63;6.63;;;5.20;99.90;;;;;;4314195;33;20187;-61
2021/04/18 00:24:28;;;;;;;17.63;6.10;;;5.20;99.90;;;;;;4315349;33;20162;-62
2021/04/18 00:26:54;;;;;;;13.97;6.43;;;5.20;99.90;;;;;;4314744;33;20529;-61
2021/04/18 00:29:20;;;;;;;12.97;5.93;;;5.20;99.90;;;;;;4315969;33;20534;-64
2021/04/18 00:31:47;;;;;;;17.27;6.33;;;5.20;99.90;;;;;;4314258;33;20195;-61
2021/04/18 00:34:14;;;;;;;19.00;7.00;;;5.10;99.90;;;;;;4311262;33;20537;-60
2021/04/18 00:36:40;;;;;;;17.93;7.17;;;5.20;99.90;;;;;;4315243;33;20183;-61
2021/04/18 00:39:07;;;;;;;13.80;7.03;;;5.10;99.90;;;;;;4315574;33;20602;-60
2021/04/18 00:41:34;;;;;;;16.80;6.83;;;5.10;99.90;;;;;;4314277;33;20219;-60
2021/04/18 00:44:00;;;;;;;17.53;7.30;;;5.20;99.90;;;;;;4313079;33;20524;-62
2021/04/18 00:46:26;;;;;;;14.47;6.67;;;5.20;99.90;;;;;;4312508;33;20158;-60
2021/04/18 00:48:53;;;;;;;19.00;5.90;;;5.10;99.90;;;;;;4315494;33;20257;-62
2021/04/18 00:51:23;;;;;;;12.53;7.00;;;5.20;99.90;;;;;;4315325;33;20205;-63
2021/04/18 00:53:49;;;;;;;12.13;6.50;;;5.20;99.90;;;;;;4313765;33;20204;-64
2021/04/18 00:56:18;;;;;;;21.60;7.53;;;5.20;99.90;;;;;;4314725;33;20184;-62
2021/04/18 00:58:45;;;;;;;14.97;7.40;;;5.20;99.90;;;;;;4315545;33;20171;-63
2021/04/18 01:01:11;;;;;;;18.30;7.63;;;5.10;99.90;;;;;;4311432;33;20146;-61
2021/04/18 01:03:37;;;;;;;19.77;7.63;;;5.10;99.90;;;;;;4315077;33;20670;-60
2021/04/18 01:06:05;;;;;;;20.43;7.40;;;5.00;99.90;;;;;;4313855;33;20221;-63
2021/04/18 01:08:31;;;;;;;13.97;6.83;;;5.00;99.90;;;;;;4327039;33;20236;-62
2021/04/18 01:10:57;;;;;;;15.40;6.40;;;5.00;99.90;;;;;;4341319;33;20222;-62
2021/04/18 01:13:24;;;;;;;14.53;6.87;;;5.00;99.90;;;;;;4341145;33;20158;-61
2021/04/18 01:15:51;;;;;;;18.40;7.80;;;5.00;99.90;;;;;;4340677;33;20168;-61
2021/04/18 01:18:17;;;;;;;10.53;6.87;;;5.00;99.90;;;;;;4343645;33;20164;-60
2021/04/18 01:20:44;;;;;;;15.90;6.33;;;4.90;99.90;;;;;;4342439;33;20200;-61
2021/04/18 01:23:11;;;;;;;15.47;7.20;;;4.90;99.90;;;;;;4346088;33;20298;-60
2021/04/18 01:25:40;;;;;;;19.13;7.07;;;4.90;99.90;;;;;;4346511;33;20153;-60
2021/04/18 01:28:11;;;;;;;17.43;6.93;;;4.80;99.90;;;;;;4346380;32;20153;-61
2021/04/18 01:30:37;;;;;;;13.07;6.70;;;4.80;99.90;;;;;;4349364;33;20153;-61
2021/04/18 01:33:04;;;;;;;17.13;7.13;;;4.80;99.90;;;;;;4347185;33;20184;-62
2021/04/18 01:35:30;;;;;;;19.03;8.67;;;4.80;99.90;;;;;;4339335;33;20165;-64
2021/04/18 01:37:57;;;;;;;15.30;7.33;;;4.70;99.90;;;;;;4343844;33;20220;-65
2021/04/18 01:40:25;;;;;;;12.40;6.20;;;4.80;99.90;;;;;;4342016;33;20228;-63
2021/04/18 01:42:52;;;;;;;19.70;7.87;;;4.80;99.90;;;;;;4348140;33;20169;-61
2021/04/18 01:45:20;;;;;;;16.57;7.43;;;4.80;99.90;;;;;;4345622;33;20153;-65
2021/04/18 01:47:47;;;;;;;19.03;8.13;;;4.70;99.90;;;;;;4338642;33;20161;-62
2021/04/18 01:50:17;;;;;;;15.80;7.23;;;4.70;99.90;;;;;;4347029;33;20236;-60
2021/04/18 01:52:45;;;;;;;17.67;8.00;;;4.70;99.90;;;;;;4340412;33;20149;-62
2021/04/18 01:55:12;;;;;;;20.13;8.60;;;4.60;99.90;;;;;;4333860;33;20227;-62
2021/04/18 01:57:39;;;;;;;16.83;7.83;;;4.60;99.90;;;;;;4343035;33;20172;-63
2021/04/18 02:00:08;;;;;;;14.60;8.30;;;4.60;99.90;;;;;;4340555;33;20366;-63
2021/04/18 02:02:34;;;;;;;15.47;8.07;;;4.50;99.90;;;;;;4344466;33;20180;-61
2021/04/18 02:05:01;;;;;;;17.43;8.57;;;4.50;99.90;;;;;;4341299;33;20237;-63
2021/04/18 02:07:27;;;;;;;18.77;8.70;;;4.50;99.90;;;;;;4339048;33;20161;-64
2021/04/18 02:09:53;;;;;;;20.53;7.87;;;4.50;99.90;;;;;;4345075;33;20239;-64
2021/04/18 02:12:20;;;;;;;15.57;7.87;;;4.40;99.90;;;;;;4345706;33;20621;-60
2021/04/18 02:14:47;;;;;;;18.53;8.07;;;4.40;99.90;;;;;;4339135;33;20165;-61
2021/04/18 02:17:13;;;;;;;18.70;8.93;;;4.40;99.90;;;;;;4343400;33;20204;-64
2021/04/18 02:19:39;;;;;;;18.17;8.07;;;4.40;99.90;;;;;;4339257;33;20262;-63
2021/04/18 02:22:06;;;;;;;22.97;8.83;;;4.30;99.90;;;;;;4346078;33;22084;-60
2021/04/18 02:24:32;;;;;;;16.03;7.60;;;4.30;99.90;;;;;;4344330;33;20149;-61
2021/04/18 02:26:58;;;;;;;18.53;8.33;;;4.20;99.90;;;;;;4337737;33;20501;-62
2021/04/18 02:29:24;;;;;;;24.13;9.37;;;4.30;99.90;;;;;;4335173;33;20169;-61
2021/04/18 02:31:52;;;;;;;15.97;8.67;;;4.30;99.90;;;;;;4345251;33;20168;-64
2021/04/18 02:34:18;;;;;;;18.37;8.47;;;4.30;99.90;;;;;;4335526;33;20169;-63
2021/04/18 02:36:45;;;;;;;17.20;7.87;;;4.30;99.90;;;;;;4343798;33;20169;-61
2021/04/18 02:39:11;;;;;;;20.57;8.20;;;4.30;99.90;;;;;;4341948;33;20172;-62
2021/04/18 02:41:37;;;;;;;18.10;8.03;;;4.30;99.90;;;;;;4344499;33;20479;-60
2021/04/18 02:44:04;;;;;;;19.80;8.17;;;4.30;99.90;;;;;;4337889;33;20227;-62
2021/04/18 02:46:30;;;;;;;18.03;7.90;;;4.20;99.90;;;;;;4335406;33;20540;-62
2021/04/18 02:48:57;;;;;;;19.07;8.13;;;4.20;99.90;;;;;;4340220;33;20161;-62
2021/04/18 02:51:24;;;;;;;15.60;7.13;;;4.20;99.90;;;;;;4338799;33;20658;-64
2021/04/18 02:53:50;;;;;;;14.77;7.67;;;4.30;99.90;;;;;;4340259;33;20227;-62
2021/04/18 02:56:16;;;;;;;19.10;8.60;;;4.20;99.90;;;;;;4342509;33;20186;-60
2021/04/18 02:58:42;;;;;;;17.30;7.97;;;4.20;99.90;;;;;;4346213;33;20186;-60
2021/04/18 03:01:09;;;;;;;14.57;7.20;;;4.20;99.90;;;;;;4343003;33;20172;-63
2021/04/18 03:03:35;;;;;;;19.30;8.53;;;4.30;99.90;;;;;;4338128;33;20233;-62
2021/04/18 03:06:02;;;;;;;14.10;7.50;;;4.20;99.90;;;;;;4336723;33;20270;-63
2021/04/18 03:08:28;;;;;;;19.90;8.13;;;4.20;99.90;;;;;;4344203;33;20192;-61
2021/04/18 03:10:55;;;;;;;13.97;7.37;;;4.20;99.90;;;;;;4345610;33;20502;-62
2021/04/18 03:13:23;;;;;;;20.13;8.13;;;4.10;99.90;;;;;;4339594;33;20229;-63
2021/04/18 03:15:49;;;;;;;17.60;7.97;;;4.10;99.90;;;;;;4341317;33;20555;-65
2021/04/18 03:18:15;;;;;;;18.50;7.93;;;4.10;99.90;;;;;;4340254;33;20252;-59
2021/04/18 03:20:41;;;;;;;21.23;8.10;;;4.10;99.90;;;;;;4341829;32;20221;-61
2021/04/18 03:23:09;;;;;;;18.27;8.67;;;4.10;99.90;;;;;;4339496;33;20588;-60
2021/04/18 03:25:38;;;;;;;22.50;8.63;;;4.20;99.90;;;;;;4341131;33;20274;-60
2021/04/18 03:28:05;;;;;;;24.37;8.57;;;4.20;99.90;;;;;;4345915;33;20232;-63
2021/04/18 03:30:32;;;;;;;29.40;10.20;;;4.20;99.90;;;;;;4337736;33;20235;-63
2021/04/18 03:32:59;;;;;;;30.30;10.60;;;4.20;99.90;;;;;;4341983;33;20176;-62
2021/04/18 03:35:26;;;;;;;28.37;11.23;;;4.20;99.90;;;;;;4345394;33;20217;-63
2021/04/18 03:37:52;;;;;;;32.47;11.10;;;4.30;99.90;;;;;;4345636;33;20192;-63
2021/04/18 03:40:19;;;;;;;26.67;10.87;;;4.40;99.90;;;;;;4339096;33;20558;-61
2021/04/18 03:42:46;;;;;;;26.53;9.33;;;4.40;99.90;;;;;;4337898;33;20251;-61
2021/04/18 03:45:13;;;;;;;25.50;10.27;;;4.30;99.90;;;;;;4339415;33;20176;-62
2021/04/18 03:47:39;;;;;;;30.90;11.23;;;4.30;99.90;;;;;;4340998;33;20593;-65
2021/04/18 03:50:07;;;;;;;25.53;11.53;;;4.30;99.90;;;;;;4333913;33;20174;-63
2021/04/18 03:52:34;;;;;;;27.07;12.00;;;4.30;99.90;;;;;;4344611;33;20494;-61
2021/04/18 03:55:00;;;;;;;26.50;12.07;;;4.30;99.90;;;;;;4343807;33;20192;-63
2021/04/18 03:57:27;;;;;;;34.70;11.93;;;4.30;99.90;;;;;;4345842;33;20157;-62
2021/04/18 03:59:54;;;;;;;30.57;12.00;;;4.20;99.90;;;;;;4342363;33;20173;-60
2021/04/18 04:02:24;;;;;;;22.43;11.37;;;4.20;99.90;;;;;;4343650;33;20605;-62
2021/04/18 04:04:50;;;;;;;22.00;10.87;;;4.20;99.90;;;;;;4342008;33;20159;-59
2021/04/18 04:07:16;;;;;;;15.90;9.90;;;4.20;99.90;;;;;;4344983;33;20176;-60
2021/04/18 04:09:43;;;;;;;16.93;10.20;;;4.20;99.90;;;;;;4338176;33;20569;-64
2021/04/18 04:12:10;;;;;;;16.97;10.77;;;4.20;99.90;;;;;;4343029;33;20164;-61
2021/04/18 04:14:37;;;;;;;17.37;10.30;;;4.30;99.90;;;;;;4332120;33;20219;-60
2021/04/18 04:17:03;;;;;;;17.77;11.47;;;4.30;99.90;;;;;;4344123;33;20172;-61
2021/04/18 04:19:30;;;;;;;14.83;10.73;;;4.30;99.90;;;;;;4337131;33;20165;-61
2021/04/18 04:21:56;;;;;;;23.77;10.77;;;4.40;99.90;;;;;;4334688;32;20559;-63
2021/04/18 04:24:22;;;;;;;21.03;11.00;;;4.40;99.90;;;;;;4335763;33;20221;-61
2021/04/18 04:26:49;;;;;;;18.80;11.03;;;4.50;99.90;;;;;;4340805;33;20157;-62
2021/04/18 04:29:15;;;;;;;20.07;10.87;;;4.50;99.90;;;;;;4341881;33;20168;-61
2021/04/18 04:31:42;;;;;;;17.80;10.93;;;4.50;99.90;;;;;;4336885;33;20161;-63
2021/04/18 04:34:08;;;;;;;18.43;11.47;;;4.50;99.90;;;;;;4335531;33;20527;-61
2021/04/18 04:36:35;;;;;;;110.60;16.83;;;4.50;99.90;;;;;;4336869;33;20791;-61
2021/04/18 04:39:01;;;;;;;21.73;12.63;;;4.50;99.90;;;;;;4339825;33;20188;-63
2021/04/18 04:41:28;;;;;;;25.10;12.97;;;4.40;99.90;;;;;;4337412;33;20228;-60
2021/04/18 04:43:54;;;;;;;23.77;12.23;;;4.50;99.90;;;;;;4336142;33;20228;-60
2021/04/18 04:46:21;;;;;;;76.77;14.33;;;4.50;99.90;;;;;;4342500;33;20176;-62
2021/04/18 04:48:51;;;;;;;18.37;11.37;;;4.50;99.90;;;;;;4345858;33;20161;-63
2021/04/18 04:51:17;;;;;;;20.30;11.17;;;4.60;99.90;;;;;;4339048;33;20663;-63
2021/04/18 04:53:43;;;;;;;19.10;11.60;;;4.70;99.90;;;;;;4333537;33;20196;-63
2021/04/18 04:56:10;;;;;;;16.07;10.50;;;4.50;99.90;;;;;;4345010;33;20192;-62
2021/04/18 04:58:36;;;;;;;16.10;11.00;;;4.50;99.90;;;;;;4336576;33;20244;-60
2021/04/18 05:01:02;;;;;;;15.47;10.53;;;4.50;99.90;;;;;;4334605;33;20228;-60
2021/04/18 05:03:29;;;;;;;16.47;9.43;;;4.50;99.90;;;;;;4344251;33;20274;-59
2021/04/18 05:05:56;;;;;;;17.57;11.57;;;4.60;99.90;;;;;;4345716;33;20533;-61
2021/04/18 05:08:23;;;;;;;20.57;11.67;;;4.70;99.90;;;;;;4343029;33;20669;-62
2021/04/18 05:10:49;;;;;;;16.40;11.33;;;4.70;99.90;;;;;;4333182;33;20178;-64
2021/04/18 05:13:16;;;;;;;20.43;11.73;;;4.80;99.90;;;;;;4342354;33;20202;-61
2021/04/18 05:15:42;;;;;;;20.03;11.80;;;4.90;99.90;;;;;;4345339;33;20216;-63
2021/04/18 05:18:09;;;;;;;18.33;11.83;;;5.00;99.90;;;;;;4339564;33;20210;-62
2021/04/18 05:20:37;;;;;;;21.73;11.13;;;5.10;99.90;;;;;;4345441;33;20169;-63
2021/04/18 05:23:05;;;;;;;22.73;12.03;;;5.20;99.90;;;;;;4344870;33;20148;-61
2021/04/18 05:25:32;;;;;;;69.37;13.80;;;5.20;99.90;;;;;;4341153;33;20183;-60
2021/04/18 05:27:58;;;;;;;20.00;12.77;;;5.10;99.90;;;;;;4333884;33;20523;-58
2021/04/18 05:30:26;;;;;;;25.67;10.77;;;5.20;99.90;;;;;;4342047;33;20172;-61
2021/04/18 05:32:52;;;;;;;16.53;9.70;;;5.30;99.90;;;;;;4337949;33;20223;-61
2021/04/18 05:35:18;;;;;;;13.80;10.13;;;5.40;99.90;;;;;;4347675;33;20587;-63
2021/04/18 05:37:45;;;;;;;63.03;12.90;;;5.50;99.90;;;;;;4347282;33;20515;-61
2021/04/18 05:40:15;;;;;;;15.43;10.57;;;5.70;99.90;;;;;;4339822;33;20569;-61
2021/04/18 05:42:41;;;;;;;20.37;11.10;;;5.80;99.90;;;;;;4335309;33;20232;-63
2021/04/18 05:45:09;;;;;;;22.20;10.47;;;5.90;99.90;;;;;;4337105;33;20153;-59
2021/04/18 05:47:35;;;;;;;30.07;10.00;;;6.10;99.90;;;;;;4341097;32;20233;-63
2021/04/18 05:50:06;;;;;;;15.10;9.73;;;6.10;99.90;;;;;;4344085;33;20165;-63
2021/04/18 05:52:32;;;;;;;14.93;10.07;;;6.00;99.90;;;;;;4340230;33;20177;-64
2021/04/18 05:54:58;;;;;;;17.17;10.47;;;6.10;99.90;;;;;;4342536;33;20255;-60
2021/04/18 05:57:25;;;;;;;56.20;11.90;;;6.20;99.90;;;;;;4340175;33;20229;-62
2021/04/18 05:59:52;;;;;;;15.27;10.07;;;6.40;99.90;;;;;;4346772;33;20161;-60
2021/04/18 06:02:18;;;;;;;40.53;10.60;;;6.50;99.90;;;;;;4341702;33;20552;-63
2021/04/18 06:04:44;;;;;;;18.33;10.27;;;6.60;99.90;;;;;;4333562;33;20235;-63
2021/04/18 06:07:11;;;;;;;19.13;10.03;;;6.70;99.90;;;;;;4340305;33;20683;-61
2021/04/18 06:09:37;;;;;;;22.17;9.93;;;6.70;99.90;;;;;;4344069;33;20208;-60
2021/04/18 06:12:04;;;;;;;21.93;10.00;;;6.80;99.90;;;;;;4341156;33;20191;-65
2021/04/18 06:14:31;;;;;;;15.00;9.97;;;6.90;99.90;;;;;;4344213;33;20175;-63
2021/04/18 06:16:57;;;;;;;16.40;9.13;;;7.00;99.90;;;;;;4333295;33;20570;-60
2021/04/18 06:19:23;;;;;;;12.30;8.90;;;7.00;99.90;;;;;;4344895;33;20303;-61
2021/04/18 06:21:51;;;;;;;24.27;9.87;;;7.10;99.90;;;;;;4343212;33;20168;-60
2021/04/18 06:24:18;;;;;;;36.77;10.73;;;7.00;99.90;;;;;;4341343;33;20192;-61
2021/04/18 06:26:46;;;;;;;28.07;10.90;;;7.00;99.90;;;;;;4336639;33;20622;-59
2021/04/18 06:29:13;;;;;;;15.03;9.33;;;7.10;99.90;;;;;;4338623;33;20217;-59
2021/04/18 06:31:40;;;;;;;31.43;10.97;;;7.10;99.90;;;;;;4340540;33;20176;-60
2021/04/18 06:34:06;;;;;;;36.90;11.97;;;7.00;99.90;;;;;;4345654;33;20184;-62
2021/04/18 06:36:32;;;;;;;27.00;11.20;;;7.10;99.90;;;;;;4341337;33;20173;-62
2021/04/18 06:38:59;;;;;;;18.23;11.20;;;7.20;99.90;;;;;;4348166;33;20160;-62
2021/04/18 06:41:26;;;;;;;25.47;10.60;;;7.40;99.90;;;;;;4345200;33;20210;-61
2021/04/18 06:43:53;;;;;;;14.10;9.43;;;7.50;99.90;;;;;;4344694;33;20146;-62
2021/04/18 06:46:23;;;;;;;16.27;9.90;;;7.70;99.90;;;;;;4341865;33;20216;-61
2021/04/18 06:48:50;;;;;;;17.13;11.10;;;7.70;99.90;;;;;;4344743;33;20182;-63
2021/04/18 06:51:18;;;;;;;86.73;15.47;;;7.90;99.90;;;;;;4342322;33;20279;-62
2021/04/18 06:53:44;;;;;;;76.23;15.53;;;7.40;99.90;;;;;;4343014;33;20229;-63
2021/04/18 06:56:12;;;;;;;64.90;15.37;;;7.30;99.90;;;;;;4345841;33;20267;-61
2021/04/18 06:58:38;;;;;;;30.77;14.53;;;7.30;99.90;;;;;;4344633;33;20173;-62
2021/04/18 07:01:05;;;;;;;62.47;16.87;;;7.40;99.90;;;;;;4343848;33;20164;-64
2021/04/18 07:03:31;;;;;;;27.40;14.73;;;7.50;99.90;;;;;;4345011;33;20259;-63
2021/04/18 07:05:59;;;;;;;26.47;15.43;;;7.80;99.90;;;;;;4344121;33;20166;-63
2021/04/18 07:08:30;;;;;;;23.47;13.50;;;7.90;99.90;;;;;;4344892;33;20157;-63
2021/04/18 07:11:14;;;;;;;23.27;13.43;;;8.40;99.90;;;;;;4342877;33;20256;-62
2021/04/18 07:13:54;;;;;;;22.83;13.90;;;8.70;99.90;;;;;;4343437;33;20204;-59
2021/04/18 07:16:27;;;;;;;27.07;15.43;;;9.00;99.90;;;;;;4344400;33;20226;-64
2021/04/18 07:18:55;;;;;;;25.50;14.53;;;9.10;99.60;;;;;;4344404;33;20272;-61
2021/04/18 07:21:44;;;;;;;25.47;14.60;;;9.10;99.10;;;;;;4344442;33;20458;-60
2021/04/18 07:24:12;;;;;;;30.23;16.50;;;9.10;98.80;;;;;;4343617;33;20307;-60
2021/04/18 07:26:39;;;;;;;23.27;14.07;;;9.10;98.90;;;;;;4343396;33;20168;-61
2021/04/18 07:29:14;;;;;;;22.70;14.13;;;9.00;99.40;;;;;;4345020;33;20232;-61
2021/04/18 07:31:41;;;;;;;26.93;16.73;;;9.20;99.50;;;;;;4343046;33;20200;-60
2021/04/18 07:34:13;;;;;;;26.70;15.23;;;9.40;98.80;;;;;;4344734;33;20200;-61
2021/04/18 07:36:47;;;;;;;24.20;13.90;;;9.70;98.40;;;;;;4343963;33;20168;-60
2021/04/18 07:39:14;;;;;;;27.50;16.20;;;10.00;97.80;;;;;;4344401;33;20162;-60
2021/04/18 07:41:44;;;;;;;24.77;15.57;;;9.90;97.10;;;;;;4343626;33;20212;-62
2021/04/18 07:44:15;;;;;;;25.73;14.23;;;10.00;97.10;;;;;;4340567;33;20216;-60
2021/04/18 07:46:44;;;;;;;27.10;13.87;;;10.00;97.00;;;;;;4342638;33;20181;-62
2021/04/18 07:49:15;;;;;;;22.77;14.53;;;10.10;97.00;;;;;;4341276;33;20235;-62
2021/04/18 07:51:47;;;;;;;22.90;14.43;;;9.80;97.00;;;;;;4342732;33;20203;-60
2021/04/18 07:54:15;;;;;;;24.13;14.60;;;9.40;97.30;;;;;;4344324;33;20181;-59
2021/04/18 07:56:49;;;;;;;28.37;16.33;;;9.60;97.60;;;;;;4343133;32;20670;-61
2021/04/18 07:59:17;;;;;;;20.57;13.90;;;9.40;97.60;;;;;;4342220;33;20612;-61
2021/04/18 08:01:43;;;;;;;19.07;14.00;;;9.00;98.20;;;;;;4344330;33;20161;-61
2021/04/18 08:04:12;;;;;;;19.80;12.33;;;9.00;98.70;;;;;;4344302;33;20208;-60
2021/04/18 08:06:39;;;;;;;20.47;14.37;;;9.10;98.40;;;;;;4342936;32;20200;-61
2021/04/18 08:09:16;;;;;;;17.27;13.57;;;9.30;98.10;;;;;;4343108;33;20272;-61
2021/04/18 08:11:44;;;;;;;21.50;15.07;;;9.00;98.80;;;;;;4344438;33;20183;-64
2021/04/18 08:14:19;;;;;;;22.33;16.07;;;9.00;98.50;;;;;;4342881;33;20149;-60
2021/04/18 08:17:03;;;;;;;20.60;13.97;;;8.90;98.60;;;;;;4343054;33;20212;-59
2021/04/18 08:19:31;;;;;;;19.87;13.03;;;9.30;98.40;;;;;;4342710;33;20526;-63
2021/04/18 08:21:57;;;;;;;20.40;12.83;;;9.60;97.60;;;;;;4342061;33;20169;-61
2021/04/18 08:24:36;;;;;;;17.07;12.27;;;9.80;97.40;;;;;;4343815;33;21896;-62
2021/04/18 08:27:06;;;;;;;22.60;13.40;;;10.40;96.10;;;;;;4337270;32;20177;-61
2021/04/18 08:29:37;;;;;;;17.77;11.63;;;10.60;95.40;;;;;;4342718;33;20179;-62
2021/04/18 08:32:11;;;;;;;17.60;11.67;;;11.00;94.60;;;;;;4342373;33;20189;-60
2021/04/18 08:34:42;;;;;;;16.80;11.00;;;11.10;94.00;;;;;;4344308;33;20219;-60
2021/04/18 08:37:19;;;;;;;15.93;10.60;;;11.70;93.30;;;;;;4340502;33;20157;-61
2021/04/18 08:39:49;;;;;;;22.67;12.37;;;12.00;92.90;;;;;;4342616;33;20229;-61
2021/04/18 08:42:29;;;;;;;19.97;11.93;;;11.50;91.90;;;;;;4341417;33;20145;-62
2021/04/18 08:44:56;;;;;;;16.63;10.23;;;11.80;91.50;;;;;;4343720;33;20176;-63
2021/04/18 08:47:29;;;;;;;15.97;10.27;;;12.70;91.10;;;;;;4343159;33;20156;-62
2021/04/18 08:50:05;;;;;;;16.37;9.97;;;15.80;80.00;;;;;;4343906;33;20172;-65
2021/04/18 08:52:34;;;;;;;14.97;9.80;;;20.00;70.30;;;;;;4345777;33;20713;-61
2021/04/18 08:55:12;;;;;;;15.60;8.87;;;21.10;63.60;;;;;;4343987;33;20202;-64
2021/04/18 08:57:39;;;;;;;14.87;8.80;;;27.00;47.10;;;;;;4340956;33;20207;-61
2021/04/18 09:00:09;;;;;;;17.90;9.70;;;30.80;39.50;;;;;;4344367;33;20181;-62
2021/04/18 09:02:35;;;;;;;14.67;8.50;;;32.90;35.40;;;;;;4344418;33;20179;-63
2021/04/18 09:05:04;;;;;;;15.60;9.27;;;33.80;35.40;;;;;;4345084;33;20204;-64
2021/04/18 09:07:33;;;;;;;15.60;9.40;;;34.90;32.60;;;;;;4343901;33;20612;-62
2021/04/18 09:10:00;;;;;;;12.83;8.70;;;34.90;32.40;;;;;;4344488;33;20165;-64
2021/04/18 09:12:28;;;;;;;11.47;7.93;;;32.10;32.60;;;;;;4343901;33;20176;-64
2021/04/18 09:14:54;;;;;;;15.57;8.03;;;24.90;38.80;;;;;;4342731;33;20199;-65
2021/04/18 09:17:22;;;;;;;16.70;8.80;;;21.70;48.60;;;;;;4342546;33;20153;-62
2021/04/18 09:19:51;;;;;;;15.47;8.73;;;18.00;58.70;;;;;;4344108;33;20207;-63
2021/04/18 09:22:19;;;;;;;14.33;8.13;;;15.90;68.70;;;;;;4336522;33;20233;-63
2021/04/18 09:24:47;;;;;;;16.10;7.70;;;15.20;70.10;;;;;;4339857;33;20695;-63
2021/04/18 09:27:16;;;;;;;9.13;6.47;;;14.60;73.70;;;;;;4341457;33;20161;-60
2021/04/18 09:29:48;;;;;;;15.87;6.33;;;14.10;72.40;;;;;;4337843;33;20177;-60
2021/04/18 09:32:19;;;;;;;12.33;7.73;;;13.70;73.40;;;;;;4343530;33;20156;-65
2021/04/18 09:34:47;;;;;;;12.87;7.03;;;13.80;76.50;;;;;;4338860;33;20211;-63
2021/04/18 09:37:26;;;;;;;12.23;7.13;;;13.90;76.50;;;;;;4339888;33;20257;-61
2021/04/18 09:39:55;;;;;;;13.30;7.27;;;14.10;76.80;;;;;;4339872;33;20157;-61
2021/04/18 09:42:23;;;;;;;11.80;6.93;;;14.10;77.90;;;;;;4342735;33;20169;-60
2021/04/18 09:44:53;;;;;;;11.13;7.53;;;14.40;75.20;;;;;;4344262;33;20187;-62
2021/04/18 09:47:27;;;;;;;10.87;5.57;;;14.50;74.80;;;;;;4345090;33;20176;-62
2021/04/18 09:49:55;;;;;;;9.83;6.30;;;13.60;71.90;;;;;;4340098;33;20224;-61
2021/04/18 09:52:31;;;;;;;10.93;6.57;;;13.70;74.10;;;;;;4341039;33;20235;-61
2021/04/18 09:55:15;;;;;;;10.17;5.93;;;14.00;76.00;;;;;;4344150;33;20487;-63
2021/04/18 09:57:47;;;;;;;10.57;5.57;;;14.30;74.00;;;;;;4344696;33;20255;-63
2021/04/18 10:00:18;;;;;;;8.87;5.43;;;14.40;72.10;;;;;;4340911;33;20161;-61
2021/04/18 10:02:58;;;;;;;14.23;5.47;;;14.10;71.90;;;;;;4345847;33;20195;-63
2021/04/18 10:05:25;;;;;;;13.00;6.47;;;13.90;73.10;;;;;;4334804;33;20615;-66
2021/04/18 10:07:51;;;;;;;9.47;6.23;;;14.00;72.40;;;;;;4340596;33;20592;-62
2021/04/18 10:10:31;;;;;;;12.43;6.17;;;14.00;73.90;;;;;;4341310;33;20192;-64
2021/04/18 10:13:00;;;;;;;10.13;5.80;;;14.00;72.70;;;;;;4339003;33;20227;-63
2021/04/18 10:15:27;;;;;;;11.80;5.80;;;14.30;73.60;;;;;;4340377;33;20228;-63
2021/04/18 10:17:54;;;;;;;9.83;5.73;;;14.10;72.40;;;;;;4340923;33;20176;-62
2021/04/18 10:20:25;;;;;;;8.83;5.33;;;14.00;71.20;;;;;;4343575;33;20213;-62
2021/04/18 10:23:02;;;;;;;11.00;6.57;;;13.90;70.70;;;;;;4337715;33;20212;-60
2021/04/18 10:25:29;;;;;;;9.23;5.43;;;14.30;72.00;;;;;;4341914;33;20478;-60
2021/04/18 10:27:58;;;;;;;8.83;5.00;;;14.50;70.70;;;;;;4340953;33;20942;-64
2021/04/18 10:30:25;;;;;;;9.07;5.40;;;14.50;69.00;;;;;;4345866;32;20157;-63
2021/04/18 10:32:53;;;;;;;8.57;5.33;;;14.70;68.70;;;;;;4342234;33;20240;-63
2021/04/18 10:35:19;;;;;;;8.47;4.80;;;14.80;66.80;;;;;;4339485;33;20160;-62
2021/04/18 10:37:56;;;;;;;9.43;4.90;;;14.80;68.00;;;;;;4345146;33;20161;-62
2021/04/18 10:40:24;;;;;;;9.53;5.20;;;14.80;66.90;;;;;;4337690;33;20219;-61
2021/04/18 10:42:51;;;;;;;10.57;5.30;;;14.90;68.00;;;;;;4340645;33;20231;-61
2021/04/18 10:45:18;;;;;;;9.57;5.60;;;15.00;66.80;;;;;;4345027;33;20671;-63
2021/04/18 10:47:44;;;;;;;12.97;5.20;;;15.00;65.80;;;;;;4345579;33;20489;-60
2021/04/18 10:50:13;;;;;;;9.43;5.00;;;15.00;65.70;;;;;;4335521;33;20169;-64
2021/04/18 10:52:40;;;;;;;8.03;5.00;;;14.90;66.70;;;;;;4341299;33;20157;-64
2021/04/18 10:55:08;;;;;;;10.30;4.93;;;14.90;66.90;;;;;;4339053;33;20171;-62
2021/04/18 10:57:34;;;;;;;9.90;5.20;;;15.10;66.80;;;;;;4343882;33;20149;-60
2021/04/18 11:00:01;;;;;;;8.67;5.47;;;15.20;66.30;;;;;;4339837;33;20279;-63
2021/04/18 11:02:27;;;;;;;9.87;5.30;;;15.40;67.00;;;;;;4347010;33;20183;-63
2021/04/18 11:04:53;;;;;;;8.77;5.13;;;15.40;65.10;;;;;;4338826;33;20237;-63
2021/04/18 11:07:22;;;;;;;8.63;4.63;;;15.50;65.20;;;;;;4341743;33;20604;-65
2021/04/18 11:09:48;;;;;;;8.87;5.43;;;15.60;65.10;;;;;;4339798;33;20165;-63
2021/04/18 11:12:16;;;;;;;10.43;5.13;;;15.80;65.30;;;;;;4344490;33;20160;-65
2021/04/18 11:14:43;;;;;;;8.07;5.37;;;15.80;65.30;;;;;;4344391;33;20212;-65
2021/04/18 11:17:09;;;;;;;13.60;6.57;;;15.80;65.60;;;;;;4335963;33;20192;-64
2021/04/18 11:19:35;;;;;;;14.70;6.23;;;15.90;65.50;;;;;;4344449;33;20252;-62
2021/04/18 11:22:02;;;;;;;11.47;5.83;;;15.90;65.10;;;;;;4343439;33;20215;-62
2021/04/18 11:24:29;;;;;;;14.93;6.23;;;15.80;66.00;;;;;;4343413;33;20529;-62
2021/04/18 11:26:55;;;;;;;9.00;5.80;;;15.80;65.70;;;;;;4337250;33;20237;-60
2021/04/18 11:29:22;;;;;;;10.77;5.70;;;16.00;66.80;;;;;;4337314;33;20252;-64
2021/04/18 11:31:53;;;;;;;11.77;5.93;;;15.80;65.80;;;;;;4339459;33;20216;-60
2021/04/18 11:34:19;;;;;;;8.17;5.50;;;15.80;66.10;;;;;;4339353;33;20269;-61
2021/04/18 11:36:47;;;;;;;7.30;5.70;;;15.90;66.10;;;;;;4341082;33;20217;-62
2021/04/18 11:39:14;;;;;;;8.67;5.43;;;16.10;66.50;;;;;;4341487;33;20164;-63
2021/04/18 11:41:44;;;;;;;10.70;5.27;;;16.30;65.70;;;;;;4342429;33;20145;-62
2021/04/18 11:44:14;;;;;;;12.13;5.80;;;16.40;65.90;;;;;;4343311;33;20228;-64
2021/04/18 11:46:43;;;;;;;12.90;5.80;;;16.30;64.80;;;;;;4339691;33;20220;-64
2021/04/18 11:49:11;;;;;;;11.70;6.33;;;16.30;65.10;;;;;;4345325;33;20161;-64
2021/04/18 11:51:40;;;;;;;10.70;5.13;;;16.40;65.90;;;;;;4342563;33;20156;-65
2021/04/18 11:54:08;;;;;;;9.73;5.60;;;16.40;64.80;;;;;;4344100;33;20161;-62
2021/04/18 11:56:36;;;;;;;8.07;5.57;;;16.40;64.70;;;;;;4343330;33;20170;-64
2021/04/18 11:59:05;;;;;;;11.53;6.10;;;16.50;64.80;;;;;;4342666;33;20659;-61
2021/04/18 12:01:34;;;;;;;10.90;6.67;;;16.60;65.10;;;;;;4341875;33;20238;-61
2021/04/18 12:04:01;;;;;;;7.93;5.53;;;16.50;63.20;;;;;;4344493;33;20179;-61
2021/04/18 12:06:27;;;;;;;9.17;5.70;;;16.50;64.40;;;;;;4336512;33;20154;-62
2021/04/18 12:08:53;;;;;;;9.30;5.83;;;16.30;63.90;;;;;;4343635;33;20169;-61
2021/04/18 12:11:20;;;;;;;9.30;6.03;;;16.20;65.30;;;;;;4344406;33;20164;-61
2021/04/18 12:13:50;;;;;;;15.53;6.73;;;16.20;65.30;;;;;;4343915;33;20629;-65
2021/04/18 12:16:17;;;;;;;12.20;5.73;;;16.00;65.50;;;;;;4342296;33;20146;-61
2021/04/18 12:18:44;;;;;;;10.30;5.60;;;15.80;66.10;;;;;;4343391;33;20172;-61
2021/04/18 12:21:11;;;;;;;12.00;6.13;;;15.70;66.90;;;;;;4341237;33;20166;-62
2021/04/18 12:23:38;;;;;;;11.03;6.60;;;15.60;67.20;;;;;;4345382;33;20199;-60
2021/04/18 12:26:04;;;;;;;11.90;6.73;;;15.70;67.50;;;;;;4344225;33;20176;-61
2021/04/18 12:28:31;;;;;;;10.60;5.87;;;15.60;66.90;;;;;;4335764;33;20217;-61
2021/04/18 12:30:58;;;;;;;11.20;5.77;;;15.60;67.20;;;;;;4345774;33;20153;-61
2021/04/18 12:33:25;;;;;;;9.80;5.47;;;15.60;66.20;;;;;;4342953;33;20473;-62
2021/04/18 12:35:51;;;;;;;11.47;5.60;;;15.40;66.80;;;;;;4333523;33;20225;-61
2021/04/18 12:38:18;;;;;;;9.57;5.83;;;15.40;67.40;;;;;;4344528;33;20209;-61
2021/04/18 12:40:44;;;;;;;10.93;5.77;;;15.30;66.70;;;;;;4342817;33;20225;-61
2021/04/18 12:43:11;;;;;;;10.23;5.70;;;15.20;67.30;;;;;;4342579;33;20588;-61
2021/04/18 12:45:37;;;;;;;13.73;6.07;;;15.20;66.60;;;;;;4341807;33;20263;-61